Time;durP1;ratioP1;P1;durP2;ratioP2;P2;SDS_P1;SDS_P2;PMS_P1;PMS_P2;Temp;Humidity;BMP_temperature;BMP_pressure;BME280_temperature;BME280_humidity;BME280_pressure;Samples;Min_cycle;Max_cycle;Signal;HPM_P1;HPM_P2
2022/06/20 00:00:11;;;;;;;8.52;1.77;;;;;;;16.79;56.92;94043.09;5082679;28;20035;-89
2022/06/20 00:02:41;;;;;;;8.73;2.00;;;;;;;16.76;57.58;94034.94;5082378;28;20025;-89
2022/06/20 00:05:12;;;;;;;9.52;2.65;;;;;;;16.74;57.66;94040.66;5082668;28;20024;-89
2022/06/20 00:07:37;;;;;;;4.43;1.73;;;;;;;16.71;55.21;94032.47;5081353;28;20028;-89
2022/06/20 00:10:03;;;;;;;4.55;1.90;;;;;;;16.60;55.27;94033.00;5082416;28;20040;-89
2022/06/20 00:12:28;;;;;;;3.47;2.05;;;;;;;16.47;55.09;94028.84;5082588;28;20024;-89
2022/06/20 00:14:59;;;;;;;4.65;1.90;;;;;;;16.38;55.08;94023.59;5082862;28;20047;-90
2022/06/20 00:17:26;;;;;;;2.47;1.75;;;;;;;16.33;55.21;94031.94;5082713;28;20020;-90
2022/06/20 00:19:52;;;;;;;9.68;1.75;;;;;;;16.33;57.17;94044.63;5082597;28;20016;-90
2022/06/20 00:22:18;;;;;;;4.80;2.20;;;;;;;16.34;57.47;94046.16;5082659;28;20017;-90
2022/06/20 00:24:43;;;;;;;5.47;1.75;;;;;;;16.39;56.23;94048.63;5086234;28;20022;-90
2022/06/20 00:27:10;;;;;;;2.83;1.60;;;;;;;16.39;55.32;94040.53;5086102;28;20336;-90
2022/06/20 00:29:41;;;;;;;4.82;1.83;;;;;;;16.37;55.48;94032.03;5086110;28;20225;-90
2022/06/20 00:32:10;;;;;;;2.90;1.57;;;;;;;16.34;55.41;94040.78;5086238;28;20025;-91
2022/06/20 00:34:35;;;;;;;2.25;1.50;;;;;;;16.37;55.21;94040.88;5086157;28;20024;-90
2022/06/20 00:37:01;;;;;;;2.80;1.70;;;;;;;16.32;55.14;94041.13;5085970;28;20269;-90
2022/06/20 00:39:27;;;;;;;3.67;1.60;;;;;;;16.25;55.35;94039.03;5084908;28;20025;-91
2022/06/20 00:41:53;;;;;;;4.60;1.80;;;;;;;16.22;55.16;94049.69;5085964;28;20199;-89
2022/06/20 00:44:28;;;;;;;3.28;1.70;;;;;;;16.20;55.93;94038.50;5085872;28;20024;-89
2022/06/20 00:47:01;;;;;;;3.58;1.90;;;;;;;16.23;57.43;94032.44;5085647;28;20028;-89
2022/06/20 00:49:37;;;;;;;3.17;1.60;;;;;;;16.24;57.43;94028.63;5084778;28;20033;-89
2022/06/20 00:52:07;;;;;;;3.25;1.55;;;;;;;16.24;57.72;94039.38;5085642;28;20021;-91
2022/06/20 00:54:56;;;;;;;5.40;1.67;;;;;;;16.18;57.58;94028.09;5085827;28;20253;-90
2022/06/20 00:57:33;;;;;;;3.85;1.58;;;;;;;16.17;58.34;94028.44;5085326;28;20334;-90
2022/06/20 01:00:14;;;;;;;8.00;2.40;;;;;;;16.18;58.87;94033.47;5085596;28;20025;-91
2022/06/20 01:02:55;;;;;;;5.25;1.90;;;;;;;16.16;58.60;94035.72;5085321;28;20035;-90
2022/06/20 01:05:27;;;;;;;5.05;2.05;;;;;;;16.17;59.25;94039.97;5085803;28;20107;-90
2022/06/20 01:07:55;;;;;;;;;;;;;;;16.16;58.96;94037.63;5085775;28;20036;-90
2022/06/20 01:10:23;;;;;;;2.80;1.73;;;;;;;16.07;59.42;94027.03;5085583;28;19909;-89
2022/06/20 01:12:54;;;;;;;7.20;1.88;;;;;;;15.98;59.59;94024.50;5085290;28;20040;-90
2022/06/20 01:15:24;;;;;;;7.75;1.95;;;;;;;15.95;59.86;94016.31;5085456;28;20024;-90
2022/06/20 01:17:51;;;;;;;5.40;2.50;;;;;;;15.89;60.20;94017.69;5085368;28;20031;-89
2022/06/20 01:20:33;;;;;;;3.67;1.52;;;;;;;15.86;60.30;94016.47;5084193;28;20096;-90
2022/06/20 01:23:23;;;;;;;4.18;2.10;;;;;;;15.83;60.42;94019.84;5085105;28;20025;-90
2022/06/20 01:25:49;;;;;;;4.97;1.98;;;;;;;15.81;60.29;94022.91;5085070;28;20032;-89
2022/06/20 01:28:19;;;;;;;3.28;1.42;;;;;;;15.78;60.30;94007.44;5084908;28;20037;-90
2022/06/20 01:30:47;;;;;;;3.38;1.90;;;;;;;15.75;60.46;94000.06;5084832;28;20012;-89
2022/06/20 01:33:16;;;;;;;2.95;1.45;;;;;;;15.76;60.58;94014.28;5084665;28;20061;-91
2022/06/20 01:38:28;;;;;;;5.60;2.00;;;;;;;15.71;60.88;94012.56;5084911;28;20027;-91
2022/06/20 01:43:39;;;;;;;5.10;2.08;;;;;;;15.66;61.12;94020.88;5084734;28;20024;-91
2022/06/20 01:46:09;;;;;;;3.05;1.80;;;;;;;15.58;61.33;94009.16;5084627;28;20012;-91
2022/06/20 01:48:38;;;;;;;3.67;2.00;;;;;;;15.59;61.63;94008.03;5084483;28;20044;-89
2022/06/20 01:51:08;;;;;;;4.85;2.08;;;;;;;15.59;61.65;94005.34;5084488;28;20322;-89
2022/06/20 01:53:34;;;;;;;5.63;2.10;;;;;;;15.56;61.37;94007.94;5084504;28;20024;-90
2022/06/20 01:56:01;;;;;;;3.13;1.75;;;;;;;15.50;61.62;94001.25;5084512;28;20080;-90
2022/06/20 01:58:37;;;;;;;4.15;1.88;;;;;;;15.40;61.02;94005.16;5084395;28;20086;-90
2022/06/20 02:01:04;;;;;;;7.35;2.08;;;;;;;15.33;59.65;94011.13;5084393;28;20024;-90
2022/06/20 02:03:33;;;;;;;3.30;1.63;;;;;;;15.36;60.61;94007.75;5084281;28;20244;-89
2022/06/20 02:06:00;;;;;;;6.75;2.10;;;;;;;15.38;61.37;94008.19;5084139;28;20058;-90
2022/06/20 02:08:25;;;;;;;4.88;1.88;;;;;;;15.39;61.77;94011.69;5083028;28;20029;-89
2022/06/20 02:11:29;;;;;;;7.18;2.00;;;;;;;15.36;61.89;94012.34;5083286;28;20036;-90
2022/06/20 02:14:00;;;;;;;4.70;2.42;;;;;;;15.36;62.78;94013.13;5083940;28;20028;-89
2022/06/20 02:16:29;;;;;;;3.70;1.98;;;;;;;15.34;62.79;94015.34;5084109;28;20054;-90
2022/06/20 02:19:00;;;;;;;5.45;2.72;;;;;;;15.27;62.86;94009.78;5084126;28;20025;-90
2022/06/20 02:21:30;;;;;;;3.77;2.30;;;;;;;15.25;62.96;94006.66;5084056;28;20028;-90
2022/06/20 02:24:03;;;;;;;4.75;1.73;;;;;;;15.22;63.17;94013.50;5083900;28;20577;-91
2022/06/20 02:26:30;;;;;;;5.85;2.50;;;;;;;15.21;63.01;94005.78;5083801;28;20032;-89
2022/06/20 02:29:22;;;;;;;5.00;2.30;;;;;;;15.18;63.58;94006.44;5083769;28;20069;-89
2022/06/20 02:32:12;;;;;;;4.85;2.35;;;;;;;15.16;63.70;94011.38;5083911;28;20091;-88
2022/06/20 02:34:38;;;;;;;5.85;2.25;;;;;;;15.13;63.96;94010.16;5080410;28;20039;-90
2022/06/20 02:37:09;;;;;;;3.40;2.00;;;;;;;15.14;63.99;94010.91;5083734;28;20023;-90
2022/06/20 02:39:40;;;;;;;5.10;2.28;;;;;;;15.13;64.15;94004.00;5082548;28;20028;-89
2022/06/20 02:43:12;;;;;;;4.18;2.10;;;;;;;15.13;64.09;94004.00;5083692;28;20368;-90
2022/06/20 02:45:11;;;;;;;11.90;2.85;;;;;;;15.10;64.18;94001.97;5069219;28;20343;-89
2022/06/20 02:47:40;;;;;;;7.82;2.47;;;;;;;15.05;64.37;93998.41;5083288;28;20295;-88
2022/06/20 02:50:06;;;;;;;3.72;2.40;;;;;;;15.05;64.76;93993.03;5082153;28;20062;-90
2022/06/20 02:52:45;;;;;;;4.70;2.08;;;;;;;15.03;64.94;93992.59;5083546;28;20070;-89
2022/06/20 02:55:13;;;;;;;5.45;2.50;;;;;;;15.01;65.19;93994.84;5083506;28;20008;-89
2022/06/20 02:57:43;;;;;;;4.43;2.22;;;;;;;14.99;65.07;93997.06;5083431;28;20026;-89
2022/06/20 03:00:17;;;;;;;6.80;2.25;;;;;;;14.98;65.10;93997.41;5083355;28;20104;-89
2022/06/20 03:02:51;;;;;;;5.82;3.22;;;;;;;14.95;65.26;94004.22;5083383;28;20060;-90
2022/06/20 03:05:17;;;;;;;6.88;2.60;;;;;;;14.90;65.35;93991.06;5083492;28;20025;-88
2022/06/20 03:07:44;;;;;;;4.88;2.78;;;;;;;14.85;65.61;93999.31;5083218;28;20087;-89
2022/06/20 03:10:38;;;;;;;4.45;2.53;;;;;;;14.82;65.28;94000.00;5083302;28;20066;-89
2022/06/20 03:13:05;;;;;;;10.90;2.97;;;;;;;14.77;65.36;93992.94;5083188;28;20326;-89
2022/06/20 03:15:31;;;;;;;9.88;3.00;;;;;;;14.70;65.54;93997.31;5083219;28;20028;-90
2022/06/20 03:18:00;;;;;;;8.63;2.70;;;;;;;14.66;65.69;93996.44;5083364;28;20069;-90
2022/06/20 03:20:27;;;;;;;15.68;3.25;;;;;;;14.63;65.52;93993.28;5083286;28;20020;-90
2022/06/20 03:22:57;;;;;;;4.90;2.75;;;;;;;14.61;65.62;93994.72;5083414;28;20027;-90
2022/06/20 03:25:23;;;;;;;5.45;3.10;;;;;;;14.60;65.93;93983.22;5083625;28;20271;-89
2022/06/20 03:27:54;;;;;;;5.80;2.92;;;;;;;14.67;66.10;93989.94;5082950;28;20032;-87
2022/06/20 03:30:32;;;;;;;7.20;2.50;;;;;;;14.71;66.08;93993.50;5082934;28;20027;-90
2022/06/20 03:33:01;;;;;;;6.82;2.58;;;;;;;14.73;65.97;93993.97;5083135;28;20020;-90
2022/06/20 03:35:30;;;;;;;4.47;2.47;;;;;;;14.78;66.02;93991.84;5083086;28;20017;-89
2022/06/20 03:38:00;;;;;;;5.78;3.28;;;;;;;14.84;65.68;93997.75;5083266;28;20081;-89
2022/06/20 03:40:26;;;;;;;6.20;3.28;;;;;;;14.83;65.55;93996.19;5083230;28;20023;-90
2022/06/20 03:42:54;;;;;;;6.50;3.17;;;;;;;14.79;65.81;93997.97;5083096;28;20016;-90
2022/06/20 03:45:22;;;;;;;5.20;3.20;;;;;;;14.79;65.99;94000.66;5083079;28;20027;-89
2022/06/20 03:47:59;;;;;;;5.30;3.03;;;;;;;14.80;66.33;93996.88;5082765;28;20052;-90
2022/06/20 03:50:38;;;;;;;5.40;3.28;;;;;;;14.89;66.55;94005.56;5083186;28;20031;-90
2022/06/20 03:53:33;;;;;;;5.97;3.28;;;;;;;14.92;66.77;94012.16;5083061;28;20048;-90
2022/06/20 03:56:07;;;;;;;6.72;3.75;;;;;;;14.97;66.45;94012.72;5079938;28;20037;-90
2022/06/20 03:58:38;;;;;;;7.93;4.30;;;;;;;15.02;66.35;93998.28;5086151;28;20027;-90
2022/06/20 04:01:11;;;;;;;9.02;4.05;;;;;;;15.10;65.82;94010.03;5086719;28;20139;-90
2022/06/20 04:03:42;;;;;;;6.72;3.63;;;;;;;15.11;65.01;94017.75;5086551;28;20374;-90
2022/06/20 04:06:17;;;;;;;9.85;3.78;;;;;;;15.13;64.75;94004.00;5086556;28;20020;-91
2022/06/20 04:11:41;;;;;;;7.18;3.40;;;;;;;15.09;63.92;94009.25;5086529;28;20024;-91
2022/06/20 04:14:16;;;;;;;6.82;3.60;;;;;;;15.10;63.38;94012.72;5086387;28;20314;-89
2022/06/20 04:16:51;;;;;;;6.15;3.50;;;;;;;15.06;63.60;94009.91;5086392;28;20062;-89
2022/06/20 04:19:38;;;;;;;4.95;3.50;;;;;;;15.10;63.70;93993.94;5086333;28;20031;-89
2022/06/20 04:22:11;;;;;;;8.20;3.58;;;;;;;15.14;63.50;93997.50;5086355;28;20020;-91
2022/06/20 04:24:43;;;;;;;5.38;3.47;;;;;;;15.20;63.69;93985.41;5086047;28;20334;-89
2022/06/20 04:27:26;;;;;;;9.75;4.25;;;;;;;15.30;63.84;93997.59;5086118;28;20019;-88
2022/06/20 04:30:05;;;;;;;8.43;3.42;;;;;;;15.43;63.83;93997.22;5086243;28;20028;-89
2022/06/20 04:32:53;;;;;;;7.80;4.18;;;;;;;15.56;63.56;93995.28;5086212;28;20069;-89
2022/06/20 04:35:39;;;;;;;7.25;3.65;;;;;;;15.68;62.88;94001.75;5085681;28;20039;-88
2022/06/20 04:38:24;;;;;;;11.25;4.50;;;;;;;15.80;62.57;93996.34;5086228;28;20016;-89
2022/06/20 04:40:59;;;;;;;7.88;4.25;;;;;;;15.83;62.54;94001.03;5085018;28;20047;-88
2022/06/20 04:43:42;;;;;;;8.57;4.45;;;;;;;15.91;62.71;93997.41;5085680;28;20028;-89
2022/06/20 04:46:33;;;;;;;9.38;4.10;;;;;;;15.91;62.56;93999.31;5085803;28;20055;-89
2022/06/20 04:49:00;;;;;;;13.05;4.00;;;;;;;15.80;62.28;93999.81;5085802;28;20040;-89
2022/06/20 04:51:38;;;;;;;16.45;5.03;;;;;;;15.84;62.31;93991.84;5085717;28;20024;-90
2022/06/20 04:54:05;;;;;;;8.35;5.03;;;;;;;15.87;62.53;93995.75;5084689;28;20063;-88
2022/06/20 04:56:31;;;;;;;12.75;5.13;;;;;;;15.94;62.06;93994.06;5085860;28;20021;-89
2022/06/20 04:59:11;;;;;;;12.52;6.28;;;;;;;15.84;62.37;93984.56;5085803;28;20024;-89
2022/06/20 05:01:37;;;;;;;11.85;4.50;;;;;;;15.89;62.26;93982.75;5085432;28;20016;-89
2022/06/20 05:04:22;;;;;;;7.13;4.47;;;;;;;16.04;61.61;93987.41;5092523;28;20042;-91
2022/06/20 05:06:48;;;;;;;6.95;4.18;;;;;;;16.11;61.22;93982.19;5094422;28;20050;-93
2022/06/20 05:09:41;;;;;;;10.05;4.18;;;;;;;16.24;61.12;93977.53;5093638;28;20041;-91
2022/06/20 05:12:12;;;;;;;10.32;5.40;;;;;;;16.38;62.01;93975.19;5093568;28;20017;-92
2022/06/20 05:14:45;;;;;;;8.65;3.92;;;;;;;16.53;62.48;93989.78;5092459;28;20033;-95
2022/06/20 05:17:20;;;;;;;12.48;4.60;;;;;;;16.68;61.79;93988.22;5085471;28;20055;-89
2022/06/20 05:19:50;;;;;;;13.57;4.38;;;;;;;16.79;60.45;93986.56;5085620;28;20058;-90
2022/06/20 05:22:22;;;;;;;9.85;4.13;;;;;;;16.86;59.62;93994.06;5085066;28;20047;-90
2022/06/20 05:24:49;;;;;;;18.83;5.10;;;;;;;16.91;59.39;93991.09;5086803;28;20349;-89
2022/06/20 05:27:24;;;;;;;17.38;5.10;;;;;;;16.88;59.74;93991.78;5087228;28;20017;-89
2022/06/20 05:29:52;;;;;;;10.20;3.83;;;;;;;16.94;58.13;93989.63;5087197;28;20123;-89
2022/06/20 05:32:33;;;;;;;7.03;4.15;;;;;;;16.93;57.32;93988.81;5087028;28;20020;-89
2022/06/20 05:35:20;;;;;;;5.82;4.07;;;;;;;16.99;57.61;93992.81;5086688;28;20020;-89
2022/06/20 05:37:55;;;;;;;15.07;5.25;;;;;;;17.01;58.72;93990.53;5084907;28;20051;-89
2022/06/20 05:40:57;;;;;;;14.05;5.38;;;;;;;17.13;59.65;93996.97;5085008;28;20025;-89
2022/06/20 05:43:23;;;;;;;;;;;;;;;17.24;61.21;93981.84;5063487;28;20114;-90
2022/06/20 05:46:03;;;;;;;8.90;5.13;;;;;;;17.27;60.23;93983.81;5080242;28;19904;-89
2022/06/20 05:48:39;;;;;;;8.50;4.80;;;;;;;17.38;58.70;93982.13;5084775;28;20104;-90
2022/06/20 05:51:08;;;;;;;12.57;5.00;;;;;;;17.45;59.56;93986.88;5084716;28;20032;-91
2022/06/20 05:53:39;;;;;;;10.95;4.70;;;;;;;17.54;58.78;93984.75;5084514;28;20020;-89
2022/06/20 05:56:22;;;;;;;11.05;4.70;;;;;;;17.69;57.50;93991.22;5084641;28;20024;-90
2022/06/20 05:58:49;;;;;;;7.65;4.82;;;;;;;17.61;57.76;93984.13;5083567;28;20020;-89
2022/06/20 06:01:23;;;;;;;10.63;4.28;;;;;;;17.69;57.61;93985.03;5084260;28;20315;-89
2022/06/20 06:04:12;;;;;;;15.00;4.40;;;;;;;17.79;56.91;93979.09;5084517;28;20082;-89
2022/06/20 06:06:55;;;;;;;11.93;4.68;;;;;;;17.92;56.15;93979.75;5084239;28;20380;-89
2022/06/20 06:09:27;;;;;;;10.90;5.80;;;;;;;18.10;55.35;93986.25;5084420;28;20032;-90
2022/06/20 06:12:01;;;;;;;8.20;4.95;;;;;;;18.18;54.89;93981.78;5083242;28;20032;-90
2022/06/20 06:14:55;;;;;;;16.60;4.72;;;;;;;18.12;55.74;93970.50;5082909;28;20096;-89
2022/06/20 06:17:34;;;;;;;11.23;4.55;;;;;;;18.15;55.50;93967.06;5083018;28;20047;-88
2022/06/20 06:20:04;;;;;;;10.40;4.57;;;;;;;18.29;54.67;93968.47;5084334;28;20070;-89
2022/06/20 06:22:34;;;;;;;9.23;4.65;;;;;;;18.37;55.69;93970.16;5084067;28;20035;-91
2022/06/20 06:25:10;;;;;;;12.20;3.67;;;;;;;18.45;54.64;93977.25;5084493;28;20028;-90
2022/06/20 06:27:36;;;;;;;7.78;4.03;;;;;;;18.45;54.50;93978.00;5084035;28;20218;-89
2022/06/20 06:30:06;;;;;;;9.07;3.42;;;;;;;18.53;53.88;93968.13;5083788;28;20050;-89
2022/06/20 06:33:07;;;;;;;9.68;3.95;;;;;;;18.55;53.26;93970.47;5084002;28;20089;-89
2022/06/20 06:35:43;;;;;;;7.60;3.63;;;;;;;18.56;53.39;93967.41;5060338;28;20028;-89
2022/06/20 06:38:17;;;;;;;12.02;3.58;;;;;;;18.56;54.06;93967.41;5083581;28;20112;-89
2022/06/20 06:40:54;;;;;;;6.20;3.85;;;;;;;18.71;53.96;93957.63;5083415;28;20030;-89
2022/06/20 06:43:23;;;;;;;9.82;3.95;;;;;;;18.85;53.64;93954.38;5083641;28;20222;-90
2022/06/20 06:45:54;;;;;;;8.95;3.60;;;;;;;19.02;53.44;93953.09;5083524;28;20024;-90
2022/06/20 06:48:35;;;;;;;6.15;3.65;;;;;;;19.19;52.97;93954.47;5083274;28;20301;-90
2022/06/20 06:51:08;;;;;;;7.65;3.45;;;;;;;19.34;51.95;93945.44;5083585;28;20024;-89
2022/06/20 06:53:48;;;;;;;8.75;3.40;;;;;;;19.37;51.06;93947.38;5083475;28;20096;-90
2022/06/20 06:56:22;;;;;;;9.25;3.33;;;;;;;19.47;50.79;93939.78;5083217;28;20074;-90
2022/06/20 06:59:04;;;;;;;12.63;3.55;;;;;;;19.60;50.34;93930.28;5083532;28;20046;-89
2022/06/20 07:01:44;;;;;;;9.82;3.50;;;;;;;19.68;50.13;93926.50;5083271;28;20054;-89
2022/06/20 07:04:21;;;;;;;7.53;3.25;;;;;;;19.71;50.19;93923.13;5083269;28;20227;-89
2022/06/20 07:06:54;;;;;;;10.85;3.45;;;;;;;19.68;49.28;93920.34;5083296;28;20016;-89
2022/06/20 07:09:24;;;;;;;13.40;3.20;;;;;;;19.76;49.93;93922.00;5082353;28;20051;-90
2022/06/20 07:12:08;;;;;;;11.60;4.35;;;;;;;19.92;48.73;93919.09;5083281;28;20028;-89
2022/06/20 07:14:43;;;;;;;12.02;3.33;;;;;;;19.93;50.28;93915.25;5083263;28;20044;-90
2022/06/20 07:17:18;;;;;;;11.30;3.35;;;;;;;20.11;49.78;93918.91;5083159;28;20029;-89
2022/06/20 07:19:48;;;;;;;11.23;2.83;;;;;;;20.26;48.92;93914.38;5083061;28;20032;-89
2022/06/20 07:22:16;;;;;;;6.15;2.60;;;;;;;20.40;47.30;93911.81;5082992;28;20020;-90
2022/06/20 07:24:44;;;;;;;13.88;2.95;;;;;;;20.49;45.80;93908.00;5083262;28;20032;-89
2022/06/20 07:27:27;;;;;;;27.63;4.95;;;;;;;20.49;47.10;93906.06;5083208;28;20019;-88
2022/06/20 07:29:58;;;;;;;4.97;2.35;;;;;;;20.51;47.71;93917.31;5083161;28;20078;-88
2022/06/20 07:32:53;;;;;;;7.53;2.50;;;;;;;20.55;46.84;93909.22;5083593;28;20024;-89
2022/06/20 07:35:26;;;;;;;11.60;2.53;;;;;;;20.53;46.41;93903.41;5086246;28;20032;-89
2022/06/20 07:38:05;;;;;;;9.95;3.00;;;;;;;20.62;47.00;93912.78;5085877;28;20024;-90
2022/06/20 07:40:39;;;;;;;7.85;2.80;;;;;;;20.75;46.64;93909.78;5085867;28;20027;-88
2022/06/20 07:43:04;;;;;;;13.50;3.15;;;;;;;20.89;46.47;93915.28;5087088;28;20038;-89
2022/06/20 07:45:41;;;;;;;7.00;2.50;;;;;;;21.05;46.57;93917.72;5086921;28;20307;-89
2022/06/20 07:48:18;;;;;;;23.50;5.82;;;;;;;21.10;46.16;93917.34;5086896;28;20048;-89
2022/06/20 07:50:49;;;;;;;25.60;8.52;;;;;;;21.16;45.80;93902.28;5086861;28;20024;-89
2022/06/20 07:53:22;;;;;;;9.02;3.28;;;;;;;21.27;44.85;93909.69;5085722;28;20074;-89
2022/06/20 07:55:53;;;;;;;9.93;2.70;;;;;;;21.32;43.78;93907.41;5085740;28;20025;-91
2022/06/20 07:58:26;;;;;;;4.85;2.25;;;;;;;21.40;42.82;93914.41;5087156;28;20068;-90
2022/06/20 08:00:53;;;;;;;2.80;1.70;;;;;;;21.44;41.69;93896.25;5086565;28;20082;-89
2022/06/20 08:03:47;;;;;;;16.65;2.30;;;;;;;21.56;41.86;93899.81;5086740;28;20040;-88
2022/06/20 08:06:23;;;;;;;6.85;2.30;;;;;;;21.64;42.07;93906.81;5086918;28;20246;-89
2022/06/20 08:08:56;;;;;;;6.75;2.25;;;;;;;21.68;42.62;93901.41;5086922;28;20028;-89
2022/06/20 08:11:42;;;;;;;3.65;2.30;;;;;;;21.69;42.39;93911.06;5086620;28;20036;-89
2022/06/20 08:14:22;;;;;;;5.63;2.20;;;;;;;21.81;41.80;93897.16;5086887;28;20023;-89
2022/06/20 08:16:52;;;;;;;5.40;2.17;;;;;;;21.94;41.72;93898.38;5086576;28;20036;-90
2022/06/20 08:19:18;;;;;;;5.50;2.30;;;;;;;22.03;41.08;93881.72;5086792;28;20024;-90
2022/06/20 08:21:53;;;;;;;6.88;2.33;;;;;;;22.02;41.62;93891.81;5086365;28;20065;-89
2022/06/20 08:24:28;;;;;;;5.00;2.42;;;;;;;22.17;40.38;93887.16;5086025;28;20371;-89
2022/06/20 08:27:08;;;;;;;8.95;2.50;;;;;;;22.27;40.09;93882.94;5086088;28;20074;-90
2022/06/20 08:29:40;;;;;;;8.25;4.03;;;;;;;22.21;41.07;93890.66;5086180;28;20043;-89
2022/06/20 08:32:16;;;;;;;9.05;2.95;;;;;;;22.20;41.31;93894.50;5086124;28;20091;-89
2022/06/20 08:34:44;;;;;;;10.48;3.17;;;;;;;22.38;41.79;93883.69;5087170;28;20217;-89
2022/06/20 08:37:18;;;;;;;14.75;3.58;;;;;;;22.49;41.48;93874.78;5087558;28;20031;-90
2022/06/20 08:40:11;;;;;;;13.07;2.85;;;;;;;22.55;39.15;93882.19;5087878;28;20091;-90
2022/06/20 08:43:04;;;;;;;7.25;2.75;;;;;;;22.69;38.44;93883.31;5087781;28;20024;-90
2022/06/20 08:45:42;;;;;;;8.15;3.00;;;;;;;22.78;38.93;93873.59;5086843;28;20032;-89
2022/06/20 08:48:45;;;;;;;12.35;2.92;;;;;;;22.97;39.66;93888.72;5087696;28;20037;-89
2022/06/20 08:51:41;;;;;;;6.35;2.53;;;;;;;23.08;35.09;93885.22;5087580;28;20393;-89
2022/06/20 08:54:45;;;;;;;8.07;2.88;;;;;;;23.19;35.19;93884.03;5086188;28;20031;-90
2022/06/20 08:57:21;;;;;;;13.18;2.83;;;;;;;23.28;35.91;93880.88;5067717;28;20354;-87
2022/06/20 09:00:04;;;;;;;10.70;2.83;;;;;;;23.27;34.85;93879.34;5085505;28;20036;-87
2022/06/20 09:02:39;;;;;;;8.60;2.63;;;;;;;23.33;35.25;93887.88;5084089;28;20345;-87
2022/06/20 09:05:41;;;;;;;8.05;2.30;;;;;;;23.32;33.63;93884.38;5084468;28;20020;-88
2022/06/20 09:08:33;;;;;;;8.55;2.45;;;;;;;23.27;34.09;93884.78;5085615;28;20051;-88
2022/06/20 09:11:13;;;;;;;8.77;2.20;;;;;;;23.25;32.88;93870.03;5085148;28;20055;-87
2022/06/20 09:14:04;;;;;;;5.18;1.92;;;;;;;23.08;33.08;93860.75;5085373;28;20196;-87
2022/06/20 09:16:58;;;;;;;5.10;1.92;;;;;;;23.30;33.64;93866.91;5084883;28;20044;-87
2022/06/20 09:19:49;;;;;;;4.80;1.95;;;;;;;23.50;33.85;93865.28;5083666;28;20112;-87
2022/06/20 09:22:48;;;;;;;6.10;1.52;;;;;;;23.69;32.47;93865.97;5083706;28;20311;-87
2022/06/20 09:25:25;;;;;;;6.03;1.83;;;;;;;23.89;32.58;93855.38;5084980;28;20021;-87
2022/06/20 09:28:00;;;;;;;2.30;1.40;;;;;;;24.03;32.17;93858.78;5085021;28;20043;-88
2022/06/20 09:30:56;;;;;;;5.00;1.17;;;;;;;24.17;31.35;93851.72;5085122;28;20214;-87
2022/06/20 09:33:58;;;;;;;3.30;1.20;;;;;;;24.30;31.22;93849.28;5085712;28;20027;-88
2022/06/20 09:37:05;;;;;;;8.60;1.60;;;;;;;24.48;31.30;93855.34;5085575;28;20074;-89
2022/06/20 09:39:57;;;;;;;5.82;1.50;;;;;;;24.57;30.97;93854.94;5074874;28;20101;-88
2022/06/20 09:43:03;;;;;;;2.40;1.13;;;;;;;24.64;30.07;93852.13;5082263;28;20043;-88
2022/06/20 09:45:39;;;;;;;7.75;1.30;;;;;;;24.71;30.52;93854.03;5051350;28;20035;-88
2022/06/20 09:48:21;;;;;;;5.20;1.50;;;;;;;24.83;29.02;93848.06;5085336;28;20037;-89
2022/06/20 09:50:54;;;;;;;;;;;;;;;24.90;29.16;93852.69;5085529;28;20029;-90
2022/06/20 09:53:55;;;;;;;2.95;1.27;;;;;;;24.93;28.59;93851.88;5085574;28;19904;-89
2022/06/20 09:56:36;;;;;;;5.85;1.10;;;;;;;24.99;27.48;93856.50;5085349;28;20054;-90
2022/06/20 09:59:33;;;;;;;2.35;1.15;;;;;;;25.07;27.61;93850.94;5085101;28;20025;-88
2022/06/20 10:02:17;;;;;;;1.90;1.02;;;;;;;25.15;26.98;93849.69;5083840;28;20279;-87
2022/06/20 10:05:18;;;;;;;4.05;1.65;;;;;;;25.26;24.08;93835.97;5085397;28;20020;-88
2022/06/20 10:08:06;;;;;;;4.53;1.38;;;;;;;25.34;27.68;93840.94;5080959;28;20132;-88
2022/06/20 10:10:38;;;;;;;5.85;1.38;;;;;;;25.42;28.69;93836.94;5084460;28;20020;-89
2022/06/20 10:13:37;;;;;;;3.17;1.83;;;;;;;25.45;27.24;93829.13;5084307;28;20024;-89
2022/06/20 10:16:40;;;;;;;2.92;1.40;;;;;;;25.55;27.90;93828.22;5083430;28;20039;-88
2022/06/20 10:19:27;;;;;;;2.95;1.20;;;;;;;25.55;26.58;93834.44;5084632;28;20192;-88
2022/06/20 10:22:07;;;;;;;2.15;0.90;;;;;;;25.43;23.50;93826.81;5084199;28;20024;-88
2022/06/20 10:24:42;;;;;;;3.75;1.58;;;;;;;25.16;24.63;93832.16;5084279;28;20020;-88
2022/06/20 10:27:29;;;;;;;3.95;1.20;;;;;;;25.22;25.65;93836.03;5084646;28;20103;-88
2022/06/20 10:30:12;;;;;;;2.50;1.27;;;;;;;25.26;24.31;93830.50;5084253;28;20154;-88
2022/06/20 10:32:54;;;;;;;2.35;1.20;;;;;;;25.38;23.92;93824.50;5084589;28;20015;-88
2022/06/20 10:35:28;;;;;;;;;;;;;;;25.33;24.52;93820.28;5085003;28;20040;-89
2022/06/20 10:38:00;;;;;;;9.57;1.63;;;;;;;25.25;25.06;93823.50;5084119;28;19943;-88
2022/06/20 10:40:31;;;;;;;5.68;1.30;;;;;;;25.25;22.30;93812.59;5084170;28;20096;-89
2022/06/20 10:43:10;;;;;;;6.50;1.20;;;;;;;25.33;22.13;93811.34;5084062;28;20322;-89
2022/06/20 10:45:48;;;;;;;1.13;0.90;;;;;;;25.39;22.40;93818.66;5094046;28;20024;-89
2022/06/20 10:48:14;;;;;;;1.80;1.08;;;;;;;25.49;22.82;93810.75;5090281;28;20040;-89
2022/06/20 10:50:58;;;;;;;2.65;1.05;;;;;;;25.53;21.56;93803.28;5087367;28;20024;-90
2022/06/20 10:53:57;;;;;;;2.03;1.20;;;;;;;25.51;23.66;93806.44;5088459;28;20075;-90
2022/06/20 10:56:43;;;;;;;4.00;1.00;;;;;;;25.51;21.30;93802.94;5085219;28;20020;-90
2022/06/20 10:59:31;;;;;;;2.40;1.35;;;;;;;25.58;22.36;93806.31;5085932;28;20024;-90
2022/06/20 11:02:34;;;;;;;4.15;1.17;;;;;;;25.73;22.05;93796.00;5084490;28;20024;-87
2022/06/20 11:05:27;;;;;;;2.42;1.20;;;;;;;25.76;21.15;93788.94;5083465;28;20095;-89
2022/06/20 11:08:18;;;;;;;2.00;1.10;;;;;;;25.92;22.50;93791.09;5083878;28;20028;-88
2022/06/20 11:11:02;;;;;;;1.40;0.90;;;;;;;26.02;23.17;93784.69;5083581;28;20047;-88
2022/06/20 11:13:40;;;;;;;2.83;1.20;;;;;;;26.04;23.58;93776.09;5085293;28;20028;-89
2022/06/20 11:16:14;;;;;;;4.38;1.30;;;;;;;26.03;23.94;93780.75;5085534;28;20315;-90
2022/06/20 11:18:59;;;;;;;7.22;1.58;;;;;;;25.98;23.90;93778.50;5085351;28;20290;-88
2022/06/20 11:22:07;;;;;;;4.45;1.45;;;;;;;25.87;23.77;93775.13;5084488;28;20038;-89
2022/06/20 11:24:40;;;;;;;2.55;1.20;;;;;;;25.85;24.25;93774.75;5085549;28;20028;-89
2022/06/20 11:27:46;;;;;;;7.40;1.40;;;;;;;25.95;25.20;93773.84;5085221;28;20021;-91
2022/06/20 11:30:36;;;;;;;4.00;1.30;;;;;;;26.09;26.91;93776.38;5085535;28;20025;-87
2022/06/20 11:33:22;;;;;;;2.00;1.17;;;;;;;26.29;25.43;93778.41;5084601;28;20021;-89
2022/06/20 11:35:48;;;;;;;2.40;1.25;;;;;;;26.43;25.41;93768.00;5084135;28;20339;-88
2022/06/20 11:38:25;;;;;;;8.30;1.60;;;;;;;26.56;25.33;93762.72;5083035;28;20028;-88
2022/06/20 11:41:09;;;;;;;8.35;1.98;;;;;;;26.72;25.15;93756.59;5084139;28;20323;-88
2022/06/20 11:43:35;;;;;;;9.73;1.50;;;;;;;26.84;25.50;93752.47;5084535;28;20083;-89
2022/06/20 11:46:34;;;;;;;3.97;1.30;;;;;;;26.92;24.97;93742.94;5084308;28;20058;-89
2022/06/20 11:49:17;;;;;;;3.20;1.30;;;;;;;26.99;24.59;93744.78;5083656;28;20036;-89
2022/06/20 11:52:02;;;;;;;2.00;1.25;;;;;;;27.15;25.26;93753.03;5084147;28;20035;-89
2022/06/20 11:54:41;;;;;;;4.55;1.20;;;;;;;27.20;23.91;93749.78;5082790;28;20024;-89
2022/06/20 11:57:14;;;;;;;2.55;1.23;;;;;;;27.24;21.75;93744.28;5084087;28;20044;-90
2022/06/20 11:59:50;;;;;;;4.78;1.67;;;;;;;27.33;21.54;93754.66;5084405;28;20103;-89
2022/06/20 12:02:53;;;;;;;4.45;1.25;;;;;;;27.29;21.46;93740.28;5083776;28;20059;-88
2022/06/20 12:05:21;;;;;;;8.18;1.48;;;;;;;27.32;21.79;93731.22;5083875;28;20031;-89
2022/06/20 12:07:49;;;;;;;7.57;1.50;;;;;;;27.35;22.98;93731.13;5084006;28;20027;-89
2022/06/20 12:10:31;;;;;;;2.60;0.98;;;;;;;27.38;20.74;93724.84;5083832;28;20032;-88
2022/06/20 12:13:23;;;;;;;1.67;0.90;;;;;;;27.52;20.62;93720.22;5084243;28;20146;-89
2022/06/20 12:15:51;;;;;;;5.78;1.30;;;;;;;27.51;22.74;93726.91;5083564;28;20036;-88
2022/06/20 12:18:31;;;;;;;3.25;1.10;;;;;;;27.64;22.53;93725.06;5085109;28;20311;-87
2022/06/20 12:23:56;;;;;;;3.60;1.27;;;;;;;28.17;23.30;93719.50;5087287;28;20072;-88
2022/06/20 12:26:29;;;;;;;2.00;1.20;;;;;;;28.46;22.46;93718.81;5086929;28;20143;-88
2022/06/20 12:28:56;;;;;;;2.80;1.17;;;;;;;28.70;22.01;93711.94;5086643;28;20066;-88
2022/06/20 12:31:33;;;;;;;3.38;1.23;;;;;;;28.77;20.77;93697.25;5086861;28;20020;-88